Time;durP1;ratioP1;P1;durP2;ratioP2;P2;SDS_P1;SDS_P2;PMS_P1;PMS_P2;Temp;Humidity;BMP_temperature;BMP_pressure;BME280_temperature;BME280_humidity;BME280_pressure;Samples;Min_cycle;Max_cycle;Signal;HPM_P1;HPM_P2
2023/02/24 10:02:31;;;;;;;20.58;3.90;;;6.10;99.90;;;;;;4938009;26;20419;-90
2023/02/24 10:05:07;;;;;;;9.05;2.80;;;6.10;99.90;;;;;;4916979;29;20031;-89
2023/02/24 10:11:33;;;;;;;14.68;3.45;;;6.20;99.90;;;;;;4867178;29;20044;-93
2023/02/24 10:14:04;;;;;;;18.73;4.32;;;6.70;99.90;;;;;;4871764;29;20538;-91
2023/02/24 10:19:29;;;;;;;15.38;3.33;;;6.70;99.90;;;;;;4916868;29;20059;-91
2023/02/24 10:22:28;;;;;;;14.30;3.58;;;6.00;99.90;;;;;;4917152;29;20060;-91
2023/02/24 10:25:35;;;;;;;22.65;3.85;;;6.00;99.90;;;;;;4933071;29;20027;-91
2023/02/24 10:28:34;;;;;;;23.15;4.40;;;6.10;99.90;;;;;;4946567;29;20483;-92
2023/02/24 10:31:34;;;;;;;19.45;4.00;;;5.90;99.90;;;;;;4946212;29;20021;-91
2023/02/24 10:34:05;;;;;;;18.92;5.10;;;6.80;99.90;;;;;;4948665;29;20114;-89
2023/02/24 10:36:35;;;;;;;18.70;4.07;;;6.30;99.90;;;;;;4954369;29;20416;-89
2023/02/24 10:39:32;;;;;;;18.20;4.50;;;6.20;99.90;;;;;;4954119;29;20027;-89
2023/02/24 10:42:16;;;;;;;16.05;5.78;;;6.10;99.90;;;;;;4954230;29;20066;-89
2023/02/24 10:44:50;;;;;;;18.55;5.00;;;6.60;99.90;;;;;;4954342;29;20515;-87
2023/02/24 10:47:19;;;;;;;15.13;4.95;;;6.70;99.90;;;;;;4954871;29;20043;-89
2023/02/24 10:49:58;;;;;;;14.05;4.55;;;6.60;99.90;;;;;;4953524;29;20026;-89
2023/02/24 10:55:38;;;;;;;16.10;5.23;;;6.30;99.90;;;;;;4953789;29;20042;-89
2023/02/24 10:58:55;;;;;;;16.53;5.13;;;6.20;99.90;;;;;;4952496;29;20298;-89
2023/02/24 11:01:53;;;;;;;15.60;5.32;;;6.80;99.90;;;;;;4952603;29;20051;-90
2023/02/24 11:07:23;;;;;;;6.57;4.63;;;6.30;99.90;;;;;;4953990;29;20399;-89
2023/02/24 11:10:09;;;;;;;11.65;6.32;;;6.10;99.90;;;;;;4954442;29;20031;-88
2023/02/24 11:18:30;;;;;;;15.02;8.02;;;6.30;99.90;;;;;;4953785;29;20022;-87
2023/02/24 11:21:02;;;;;;;11.23;7.43;;;6.60;99.90;;;;;;4953644;29;20035;-89
2023/02/24 11:23:33;;;;;;;9.48;7.25;;;6.30;99.90;;;;;;4967568;23;20361;-90
2023/02/24 11:29:29;;;;;;;8.48;7.38;;;6.40;99.90;;;;;;4915867;23;20177;-89
2023/02/24 11:34:52;;;;;;;8.60;7.40;;;6.60;99.90;;;;;;5386348;23;20051;-91
2023/02/24 11:37:51;;;;;;;9.52;8.43;;;6.50;99.90;;;;;;4946790;23;20055;-91
2023/02/24 11:40:28;;;;;;;9.35;8.38;;;6.60;99.90;;;;;;4939583;29;20032;-91
2023/02/24 11:45:53;;;;;;;13.98;8.40;;;6.60;99.90;;;;;;4990877;23;20058;-92
2023/02/24 11:51:36;;;;;;;16.65;7.13;;;6.70;99.90;;;;;;4954526;23;20047;-93
2023/02/24 11:57:58;;;;;;;13.95;8.35;;;6.70;99.90;;;;;;4939063;23;20056;-88
2023/02/24 12:00:29;;;;;;;12.90;8.48;;;6.70;99.90;;;;;;4879350;29;20261;-89
2023/02/24 12:03:24;;;;;;;12.73;8.10;;;6.80;99.90;;;;;;4877890;29;20055;-91
2023/02/24 12:05:56;;;;;;;13.35;7.60;;;6.80;99.90;;;;;;4878980;29;20029;-88
2023/02/24 12:08:53;;;;;;;14.38;8.48;;;7.50;99.90;;;;;;4881269;29;20121;-89
2023/02/24 12:11:57;;;;;;;13.80;8.02;;;6.70;99.90;;;;;;4861416;29;20041;-90
2023/02/24 12:14:35;;;;;;;16.20;7.35;;;6.90;99.90;;;;;;4881218;29;20066;-89
2023/02/24 12:17:32;;;;;;;15.32;7.00;;;6.90;99.90;;;;;;4881895;29;20043;-91
2023/02/24 12:24:04;;;;;;;11.35;5.60;;;6.50;99.90;;;;;;4939535;29;20536;-90
2023/02/24 12:30:59;;;;;;;13.70;4.75;;;7.00;99.90;;;;;;4915687;29;20029;-90
2023/02/24 12:33:33;;;;;;;12.02;5.32;;;7.10;99.90;;;;;;4855062;29;20029;-90
2023/02/24 12:36:37;;;;;;;14.10;5.57;;;7.20;99.90;;;;;;4862338;29;20037;-90
2023/02/24 12:39:31;;;;;;;28.95;5.70;;;7.30;99.90;;;;;;4841531;29;20044;-89
2023/02/24 12:42:33;;;;;;;20.52;5.82;;;7.30;99.90;;;;;;4857436;29;20105;-89
2023/02/24 12:46:04;;;;;;;25.98;7.43;;;7.30;99.90;;;;;;4864673;29;20124;-91
2023/02/24 12:51:40;;;;;;;30.13;5.88;;;7.50;99.90;;;;;;4948989;23;20494;-90
2023/02/24 13:05:09;;;;;;;25.30;4.07;;;7.90;99.90;;;;;;4930205;23;20051;-90
2023/02/24 13:07:37;;;;;;;28.05;4.05;;;8.00;99.90;;;;;;4943900;29;20058;-90
2023/02/24 13:10:47;;;;;;;26.58;3.70;;;8.20;99.90;;;;;;4947159;29;20435;-90
2023/02/24 13:13:29;;;;;;;;;;;;;;;;;;;;;
2023/02/24 13:16:13;;;;;;;32.03;4.15;;;8.30;99.90;;;;;;4907129;29;20530;-93
2023/02/24 13:18:44;;;;;;;32.25;4.28;;;8.80;99.90;;;;;;4945719;29;20034;-90
2023/02/24 13:21:39;;;;;;;28.63;4.55;;;9.20;99.90;;;;;;4944473;29;20130;-90
2023/02/24 13:24:38;;;;;;;27.25;4.55;;;8.20;99.90;;;;;;4952049;29;20061;-92
2023/02/24 13:27:23;;;;;;;;;;;;;;;;;;;;;
2023/02/24 13:30:18;;;;;;;31.88;4.00;;;8.80;99.90;;;;;;4919597;29;20040;-91
2023/02/24 13:33:17;;;;;;;30.17;4.47;;;8.30;99.90;;;;;;4894639;29;20029;-91
2023/02/24 13:36:24;;;;;;;29.00;4.60;;;8.10;99.90;;;;;;4893992;29;20499;-90
2023/02/24 13:39:18;;;;;;;24.48;5.22;;;8.30;99.90;;;;;;4877957;29;20043;-90
2023/02/24 13:42:24;;;;;;;29.42;4.22;;;8.30;99.90;;;;;;4886477;29;20071;-92
2023/02/24 13:45:22;;;;;;;29.17;4.40;;;8.30;99.90;;;;;;4844767;29;20045;-90
2023/02/24 13:48:23;;;;;;;27.33;4.30;;;8.20;99.90;;;;;;4923435;29;20420;-91
2023/02/24 13:51:26;;;;;;;23.15;3.50;;;8.10;99.90;;;;;;4940511;29;20344;-89
2023/02/24 13:54:30;;;;;;;15.48;2.70;;;8.10;99.90;;;;;;4934561;29;20036;-89
2023/02/24 13:57:22;;;;;;;10.95;1.98;;;7.80;99.90;;;;;;4932336;29;20087;-91
2023/02/24 14:00:38;;;;;;;;;;;;;;;;;;;;;
2023/02/24 14:03:37;;;;;;;;;;;;;;;;;;;;;
2023/02/24 14:07:02;;;;;;;;;;;;;;;;;;;;;
2023/02/24 14:10:24;;;;;;;24.13;4.05;;;7.80;99.90;;;;;;4871549;29;20043;-90
2023/02/24 14:13:38;;;;;;;;;;;;;;;;;;;;;
2023/02/24 14:16:27;;;;;;;32.25;4.43;;;7.40;99.90;;;;;;4862461;29;20048;-90
2023/02/24 14:18:57;;;;;;;35.75;4.65;;;7.80;99.90;;;;;;4860690;29;20142;-91
2023/02/24 14:28:04;;;;;;;19.95;3.22;;;7.50;99.90;;;;;;4974099;23;20051;-90
2023/02/24 14:39:02;;;;;;;;;;;7.40;99.90;;;;;;4942766;29;20073;-89
2023/02/24 14:48:51;;;;;;;19.73;2.97;;;7.60;99.90;;;;;;4943520;29;20434;-91
2023/02/24 14:51:34;;;;;;;;;;;;;;;;;;;;;
2023/02/24 14:58:26;;;;;;;15.25;3.20;;;7.40;99.90;;;;;;4870981;29;20029;-90
2023/02/24 15:01:28;;;;;;;11.77;2.05;;;8.30;99.90;;;;;;4896724;29;20069;-90
2023/02/24 15:04:00;;;;;;;21.65;3.10;;;7.60;99.90;;;;;;4894236;29;20037;-92
2023/02/24 15:06:42;;;;;;;;;;;;;;;;;;;;;
2023/02/24 15:20:38;;;;;;;20.38;2.95;;;7.80;99.90;;;;;;4828699;29;20082;-92
2023/02/24 15:23:39;;;;;;;19.48;2.33;;;8.00;99.90;;;;;;4863912;29;20057;-88
2023/02/24 15:34:37;;;;;;;7.43;1.58;;;7.90;99.90;;;;;;4940163;23;20082;-90
2023/02/24 15:40:45;;;;;;;6.38;1.30;;;8.30;99.90;;;;;;4936577;29;20046;-90
2023/02/24 15:43:44;;;;;;;9.15;1.35;;;8.00;99.90;;;;;;4940092;29;20391;-92
2023/02/24 15:46:45;;;;;;;12.52;1.58;;;8.80;99.90;;;;;;4938317;29;20036;-90
2023/02/24 15:49:16;;;;;;;12.80;2.05;;;7.90;99.90;;;;;;4931257;29;20111;-90
2023/02/24 15:51:47;;;;;;;10.80;1.42;;;8.30;99.90;;;;;;4937527;29;20027;-90
2023/02/24 15:54:48;;;;;;;9.43;1.50;;;8.40;99.90;;;;;;4951378;29;20028;-91
2023/02/24 15:57:18;;;;;;;13.05;1.63;;;7.60;99.90;;;;;;4933947;28;20036;-89
2023/02/24 15:59:51;;;;;;;11.37;2.20;;;7.50;99.90;;;;;;4950162;29;20032;-91
2023/02/24 16:02:21;;;;;;;14.30;2.08;;;7.90;99.90;;;;;;4952435;29;20043;-91
2023/02/24 16:04:48;;;;;;;11.23;2.15;;;7.90;99.90;;;;;;4948950;29;20076;-91
2023/02/24 16:07:24;;;;;;;7.30;1.67;;;7.90;99.90;;;;;;4923096;29;20028;-92
2023/02/24 16:09:53;;;;;;;13.27;2.08;;;7.70;99.90;;;;;;4948679;28;20031;-91
2023/02/24 16:12:28;;;;;;;11.13;1.80;;;8.10;99.90;;;;;;4931512;29;20024;-92
2023/02/24 16:15:00;;;;;;;13.15;1.83;;;7.90;99.90;;;;;;4936420;29;20055;-93
2023/02/24 16:18:28;;;;;;;13.02;2.30;;;8.20;99.90;;;;;;4933947;29;20055;-92
2023/02/24 16:21:03;;;;;;;12.75;1.85;;;7.40;99.90;;;;;;4930407;29;20425;-92
2023/02/24 16:26:56;;;;;;;17.27;3.22;;;8.10;99.90;;;;;;4925791;29;20027;-93
2023/02/24 16:29:27;;;;;;;21.95;2.22;;;8.60;99.90;;;;;;4872217;29;20072;-90
2023/02/24 16:31:52;;;;;;;16.38;2.60;;;8.10;99.90;;;;;;4869645;29;20079;-91
2023/02/24 16:41:09;;;;;;;;;;;;;;;;;;;;;
2023/02/24 16:43:55;;;;;;;13.90;2.20;;;7.20;99.90;;;;;;4866443;29;20040;-91
2023/02/24 16:46:27;;;;;;;15.57;2.05;;;7.50;99.90;;;;;;4918005;29;20027;-91
2023/02/24 16:49:01;;;;;;;13.35;2.25;;;7.40;99.90;;;;;;4920424;29;20035;-91
2023/02/24 16:51:30;;;;;;;17.40;1.60;;;7.50;99.90;;;;;;4904682;29;20043;-93
2023/02/24 16:53:56;;;;;;;14.73;3.22;;;7.70;99.90;;;;;;4921259;29;20535;-92
2023/02/24 16:57:12;;;;;;;;;;;;;;;;;;;;;
2023/02/24 17:00:28;;;;;;;12.98;2.65;;;6.90;99.90;;;;;;4922215;29;20039;-92
2023/02/24 17:03:33;;;;;;;14.90;2.40;;;7.40;99.90;;;;;;4938919;29;20036;-91
2023/02/24 17:06:01;;;;;;;22.30;3.00;;;6.90;99.90;;;;;;4919941;29;20525;-90
2023/02/24 17:11:32;;;;;;;11.60;2.47;;;8.10;99.90;;;;;;4914859;28;20035;-91
2023/02/24 17:14:10;;;;;;;;;;;;;;;;;;;;;
2023/02/24 17:17:29;;;;;;;10.63;2.40;;;6.30;99.90;;;;;;4888985;29;20073;-93
2023/02/24 17:21:01;;;;;;;22.67;2.75;;;6.60;99.90;;;;;;4928741;23;20051;-93
2023/02/24 17:52:55;;;;;;;21.13;2.83;;;6.70;99.90;;;;;;4932946;29;20051;-92
2023/02/24 17:55:52;;;;;;;16.92;3.85;;;6.60;99.90;;;;;;4934412;29;20020;-94
2023/02/24 18:01:08;;;;;;;12.38;2.47;;;6.50;99.90;;;;;;4982151;23;20027;-89
2023/02/24 18:03:39;;;;;;;16.33;3.25;;;7.10;99.90;;;;;;4957420;23;20053;-92
2023/02/24 18:06:14;;;;;;;12.52;3.63;;;6.30;99.90;;;;;;4948025;29;20415;-94
2023/02/24 18:08:52;;;;;;;18.08;3.05;;;6.90;99.90;;;;;;4953603;29;20432;-89
2023/02/24 18:11:20;;;;;;;16.70;4.38;;;7.40;99.90;;;;;;4955382;29;20503;-92
2023/02/24 18:13:53;;;;;;;16.30;2.38;;;6.80;99.90;;;;;;4955824;29;20031;-88
2023/02/24 18:16:22;;;;;;;15.95;4.75;;;7.10;99.90;;;;;;4954465;29;20035;-93
2023/02/24 18:18:54;;;;;;;18.98;2.95;;;5.00;99.90;;;;;;4955892;29;20033;-91
2023/02/24 18:21:24;;;;;;;9.63;1.88;;;6.30;99.90;;;;;;4937461;29;20043;-92
2023/02/24 18:23:56;;;;;;;16.05;2.17;;;7.00;99.90;;;;;;4948320;29;20035;-92
2023/02/24 18:26:27;;;;;;;9.52;2.10;;;6.20;99.90;;;;;;4941783;29;20483;-91
2023/02/24 18:28:59;;;;;;;12.00;2.63;;;6.80;99.90;;;;;;4935249;29;20039;-91
2023/02/24 18:31:32;;;;;;;11.30;2.92;;;6.40;99.90;;;;;;4956082;29;20027;-93
2023/02/24 18:36:28;;;;;;;10.73;2.97;;;6.00;99.90;;;;;;5150299;23;20246;-91
2023/02/24 18:39:29;;;;;;;11.65;2.95;;;6.00;99.90;;;;;;4944484;29;20023;-90
2023/02/24 18:42:03;;;;;;;19.38;3.00;;;7.30;99.90;;;;;;4920331;29;20650;-92
2023/02/24 18:48:39;;;;;;;;;;;;;;;;;;;;;
2023/02/24 18:51:55;;;;;;;14.93;2.15;;;6.60;99.90;;;;;;4939793;29;20035;-91
2023/02/24 18:55:01;;;;;;;15.95;2.92;;;5.80;99.90;;;;;;4948206;29;20467;-91
2023/02/24 18:57:45;;;;;;;;;;;;;;;;;;;;;
2023/02/24 19:00:11;;;;;;;17.42;3.10;;;6.00;99.90;;;;;;4927705;29;20042;-92
2023/02/24 19:02:40;;;;;;;16.83;3.60;;;6.10;99.90;;;;;;4951803;29;20414;-91
2023/02/24 19:05:12;;;;;;;21.15;3.15;;;7.00;99.90;;;;;;4948463;29;20049;-92
2023/02/24 19:07:41;;;;;;;21.30;4.22;;;6.10;99.90;;;;;;4947764;29;20036;-92
2023/02/24 19:10:07;;;;;;;34.28;5.28;;;6.10;99.90;;;;;;4946216;29;20090;-92
2023/02/24 19:12:39;;;;;;;28.60;4.80;;;6.20;99.90;;;;;;4944717;29;20061;-92
2023/02/24 19:15:10;;;;;;;26.27;5.00;;;6.20;99.90;;;;;;4954152;28;20311;-91
2023/02/24 19:17:36;;;;;;;22.35;4.47;;;6.10;99.90;;;;;;4941724;29;20023;-92
2023/02/24 19:20:04;;;;;;;29.88;5.00;;;6.60;99.90;;;;;;4947366;29;20042;-90
2023/02/24 19:22:32;;;;;;;24.02;3.70;;;6.10;99.90;;;;;;4941576;29;20035;-91
2023/02/24 19:24:58;;;;;;;17.40;3.65;;;6.20;99.90;;;;;;4943631;29;20079;-91
2023/02/24 19:27:29;;;;;;;29.88;4.82;;;6.70;99.90;;;;;;4951548;29;20028;-92
2023/02/24 19:30:30;;;;;;;34.13;4.88;;;6.60;99.90;;;;;;4954147;29;20082;-92
2023/02/24 19:32:59;;;;;;;26.55;5.20;;;6.10;99.90;;;;;;4953857;29;20166;-94
2023/02/24 19:41:37;;;;;;;15.30;3.67;;;6.00;99.90;;;;;;4923513;29;20082;-90
2023/02/24 19:44:02;;;;;;;24.92;4.45;;;6.10;99.90;;;;;;4922802;29;20039;-91
2023/02/24 19:46:46;;;;;;;;;;;;;;;;;;;;;
2023/02/24 19:49:41;;;;;;;;;;;;;;;;;;;;;
2023/02/24 20:41:39;;;;;;;21.88;4.38;;;6.00;99.90;;;;;;4953112;23;20059;-91
2023/02/24 21:20:12;;;;;;;;;;;;;;;;;;;;;
2023/02/24 21:23:10;;;;;;;;;;;;;;;;;;;;;
2023/02/24 21:36:19;;;;;;;20.92;3.30;;;6.50;99.90;;;;;;4856710;29;20130;-92
2023/02/24 21:45:38;;;;;;;17.92;3.60;;;6.30;99.90;;;;;;4864103;29;20036;-91
2023/02/24 21:53:05;;;;;;;20.65;2.97;;;5.90;99.90;;;;;;4850153;29;20132;-90
2023/02/24 21:55:40;;;;;;;22.67;2.97;;;5.90;99.90;;;;;;4859971;23;20078;-91
2023/02/24 22:06:27;;;;;;;30.98;5.13;;;5.50;99.90;;;;;;4897882;29;20040;-91
2023/02/24 22:54:26;;;;;;;19.10;4.78;;;5.10;99.90;;;;;;4938844;29;20048;-88
2023/02/24 22:57:32;;;;;;;26.13;6.55;;;5.40;99.90;;;;;;4944792;29;20031;-91
2023/02/24 22:59:58;;;;;;;14.10;3.33;;;5.10;99.90;;;;;;4896247;29;20508;-93
2023/02/24 23:02:24;;;;;;;19.73;3.65;;;4.60;99.90;;;;;;4896225;29;20037;-89
2023/02/24 23:04:52;;;;;;;16.65;2.78;;;5.10;99.90;;;;;;4924899;29;20468;-92
2023/02/24 23:07:25;;;;;;;28.63;4.03;;;5.00;99.90;;;;;;4936297;29;20031;-92
2023/02/24 23:09:54;;;;;;;12.77;2.72;;;5.10;99.90;;;;;;4936068;29;20059;-90
2023/02/24 23:12:22;;;;;;;19.83;3.85;;;5.30;99.90;;;;;;4935887;29;20036;-91
2023/02/24 23:14:57;;;;;;;23.85;2.90;;;5.90;99.90;;;;;;4936150;29;20055;-91
2023/02/24 23:17:26;;;;;;;19.92;2.60;;;6.00;99.90;;;;;;4935699;29;20027;-91
2023/02/24 23:19:58;;;;;;;23.98;3.15;;;5.80;99.90;;;;;;4936389;29;20388;-91
2023/02/24 23:22:29;;;;;;;7.55;2.15;;;6.20;99.90;;;;;;4939905;29;20063;-92
2023/02/24 23:24:55;;;;;;;8.35;2.47;;;5.90;99.90;;;;;;4939374;29;20028;-91
2023/02/24 23:27:24;;;;;;;10.73;2.00;;;5.70;99.90;;;;;;4939587;29;20031;-90
2023/02/24 23:30:02;;;;;;;15.30;2.17;;;5.10;99.90;;;;;;4939782;29;20110;-91
2023/02/24 23:32:28;;;;;;;9.00;2.13;;;4.70;99.90;;;;;;4939389;29;20066;-91
2023/02/24 23:35:02;;;;;;;17.88;2.72;;;5.70;99.90;;;;;;4939924;29;20020;-91
2023/02/24 23:37:30;;;;;;;14.18;2.60;;;5.80;99.90;;;;;;4939545;29;20071;-91
2023/02/24 23:39:59;;;;;;;17.38;3.58;;;5.30;99.90;;;;;;4938791;29;20027;-91
2023/02/24 23:42:29;;;;;;;12.80;2.58;;;5.70;99.90;;;;;;4939560;29;20031;-91
2023/02/24 23:44:58;;;;;;;17.02;2.63;;;5.90;99.90;;;;;;4939709;29;20051;-93
2023/02/24 23:47:32;;;;;;;13.60;2.47;;;5.90;99.90;;;;;;4938919;29;20487;-90
2023/02/24 23:50:02;;;;;;;19.15;3.03;;;5.60;99.90;;;;;;4944029;29;20032;-92
2023/02/24 23:52:32;;;;;;;17.65;2.20;;;5.80;99.90;;;;;;4957441;28;20047;-91
2023/02/24 23:55:05;;;;;;;;;;;5.50;99.90;;;;;;4958821;29;20031;-91
2023/02/24 23:57:37;;;;;;;12.82;3.03;;;5.20;99.90;;;;;;4958708;29;19910;-91
